createdAt,value
2018-06-03T00:00:04.111Z,82.1523
2018-06-03T00:01:09.219Z,82.4034
2018-06-03T00:02:14.374Z,82.1523
2018-06-03T00:03:19.806Z,82.6544
2018-06-03T00:04:25.364Z,82.6544
2018-06-03T00:05:30.819Z,81.9013
2018-06-03T00:06:36.504Z,81.3966
2018-06-03T00:07:41.940Z,82.1523
2018-06-03T00:08:47.090Z,82.6544
2018-06-03T00:09:52.209Z,82.4034
2018-06-03T00:10:57.096Z,82.4034
2018-06-03T00:12:02.528Z,81.9013
2018-06-03T00:13:08.226Z,81.3966
2018-06-03T00:14:12.528Z,81.3966
2018-06-03T00:15:17.966Z,81.1456
2018-06-03T00:16:23.372Z,81.1456
2018-06-03T00:17:28.517Z,81.1456
2018-06-03T00:18:34.402Z,81.1456
2018-06-03T00:19:39.847Z,80.9765
2018-06-03T00:20:44.713Z,80.9765
2018-06-03T00:21:50.703Z,81.6477
2018-06-03T00:22:56.135Z,81.3966
2018-06-03T00:24:01.567Z,80.9765
2018-06-03T00:25:06.686Z,81.3966
2018-06-03T00:26:12.299Z,81.6477
2018-06-03T00:27:17.881Z,80.7255
2018-06-03T00:28:23.273Z,80.9765
2018-06-03T00:29:28.418Z,81.6477
2018-06-03T00:30:34.329Z,81.3966
2018-06-03T00:31:39.201Z,81.1456
2018-06-03T00:32:44.635Z,80.7255
2018-06-03T00:33:50.206Z,81.6477
2018-06-03T00:34:55.077Z,81.3966
2018-06-03T00:36:00.531Z,81.3966
2018-06-03T00:37:05.925Z,81.3966
2018-06-03T00:38:10.517Z,81.6477
2018-06-03T00:39:15.962Z,81.3966
2018-06-03T00:40:21.726Z,81.1456
2018-06-03T00:41:27.261Z,80.4745
2018-06-03T00:42:32.912Z,81.1456
2018-06-03T00:43:38.058Z,80.4745
2018-06-03T00:44:42.930Z,80.4745
2018-06-03T00:45:48.592Z,81.9013
2018-06-03T00:46:54.037Z,81.3966
2018-06-03T00:47:58.903Z,80.9765
2018-06-03T00:49:04.299Z,80.9765
2018-06-03T00:50:09.452Z,81.1456
2018-06-03T00:51:14.892Z,81.3966
2018-06-03T00:52:20.428Z,81.3966
2018-06-03T00:53:25.573Z,81.1456
2018-06-03T00:54:31.274Z,81.6477
2018-06-03T00:55:36.416Z,81.3966
2018-06-03T00:56:41.848Z,81.1456
2018-06-03T00:57:47.066Z,81.6477
2018-06-03T00:58:52.221Z,81.9013
2018-06-03T00:59:57.367Z,81.3966
2018-06-03T01:01:02.789Z,81.6477
2018-06-03T01:02:07.669Z,80.9765
2018-06-03T01:03:13.128Z,81.3966
2018-06-03T01:04:18.812Z,81.6477
2018-06-03T01:05:23.966Z,81.6477
2018-06-03T01:06:29.751Z,82.1523
2018-06-03T01:07:34.616Z,82.1523
2018-06-03T01:08:39.773Z,81.9013
2018-06-03T01:09:45.651Z,83.0745
2018-06-03T01:10:50.835Z,82.6544
2018-06-03T01:11:55.998Z,83.5792
2018-06-03T01:13:01.392Z,82.6544
2018-06-03T01:14:05.991Z,82.6544
2018-06-03T01:15:10.879Z,82.4034
2018-06-03T01:16:16.559Z,83.5792
2018-06-03T01:17:22.031Z,83.8302
2018-06-03T01:18:27.846Z,82.8235
2018-06-03T01:19:33.323Z,83.5792
2018-06-03T01:20:38.491Z,82.8235
2018-06-03T01:21:44.182Z,83.0745
2018-06-03T01:22:49.092Z,83.0745
2018-06-03T01:23:54.526Z,83.5792
2018-06-03T01:25:00.308Z,82.8235
2018-06-03T01:26:05.177Z,83.5792
2018-06-03T01:27:10.069Z,84.2504
2018-06-03T01:28:15.474Z,83.0745
2018-06-03T01:29:20.648Z,83.0745
2018-06-03T01:30:41.337Z,82.6544
2018-06-03T01:31:46.776Z,83.9967
2018-06-03T01:32:52.206Z,83.0745
2018-06-03T01:33:57.608Z,83.5792
2018-06-03T01:35:02.476Z,83.9967
2018-06-03T01:36:07.652Z,84.2504
2018-06-03T01:37:13.164Z,83.9967
2018-06-03T01:38:18.312Z,83.5792
2018-06-03T01:39:23.178Z,83.9967
2018-06-03T01:40:28.213Z,83.9967
2018-06-03T01:41:33.100Z,84.7524
2018-06-03T01:42:38.509Z,83.9967
2018-06-03T01:43:43.660Z,84.5014
2018-06-03T01:44:49.095Z,85.2571
2018-06-03T01:45:54.607Z,84.2504
2018-06-03T01:46:59.488Z,84.2504
2018-06-03T01:48:04.642Z,84.7524
2018-06-03T01:49:10.435Z,83.8302
2018-06-03T01:50:15.600Z,84.2504
2018-06-03T01:51:21.037Z,84.2504
2018-06-03T01:52:26.269Z,84.7524
2018-06-03T01:53:30.853Z,83.8302
2018-06-03T01:54:36.413Z,83.8302
2018-06-03T01:55:41.562Z,84.5014
2018-06-03T01:56:46.717Z,84.7524
2018-06-03T01:57:52.508Z,85.7591
2018-06-03T01:58:57.661Z,85.2571
2018-06-03T02:00:02.542Z,85.2571
2018-06-03T02:01:07.939Z,84.2504
2018-06-03T02:02:13.372Z,84.7524
2018-06-03T02:03:18.531Z,84.5014
2018-06-03T02:04:24.313Z,84.7524
2018-06-03T02:05:29.511Z,85.0034
2018-06-03T02:06:35.023Z,84.5014
2018-06-03T02:07:40.453Z,85.0034
2018-06-03T02:08:45.885Z,83.9967
2018-06-03T02:09:51.490Z,84.5014
2018-06-03T02:10:56.929Z,84.7524
2018-06-03T02:12:02.094Z,84.2504
2018-06-03T02:13:07.027Z,85.2571
2018-06-03T02:14:12.177Z,85.2571
2018-06-03T02:15:17.051Z,85.0034
2018-06-03T02:16:22.454Z,85.2571
2018-06-03T02:17:27.888Z,84.5014
2018-06-03T02:18:33.843Z,84.5014
2018-06-03T02:19:39.278Z,84.2504
2018-06-03T02:20:44.735Z,84.7524
2018-06-03T02:21:50.415Z,85.7591
2018-06-03T02:22:55.854Z,85.7591
2018-06-03T02:24:01.018Z,85.5081
2018-06-03T02:25:06.144Z,84.7524
2018-06-03T02:26:11.030Z,85.0034
2018-06-03T02:27:16.204Z,83.8302
2018-06-03T02:28:22.028Z,85.2571
2018-06-03T02:29:26.922Z,84.7524
2018-06-03T02:30:32.214Z,85.0034
2018-06-03T02:31:37.644Z,84.7524
2018-06-03T02:32:42.801Z,84.5014
2018-06-03T02:33:48.167Z,85.0034
2018-06-03T02:34:53.032Z,84.5014
2018-06-03T02:35:58.468Z,85.2571
2018-06-03T02:37:03.313Z,84.5014
2018-06-03T02:38:08.182Z,84.7524
2018-06-03T02:39:13.640Z,84.2504
2018-06-03T02:40:18.765Z,83.5792
2018-06-03T02:41:24.195Z,84.2504
2018-06-03T02:42:29.094Z,84.2504
2018-06-03T02:43:33.674Z,84.7524
2018-06-03T02:44:39.104Z,85.0034
2018-06-03T02:45:44.514Z,84.7524
2018-06-03T02:46:49.958Z,85.0034
2018-06-03T02:47:55.419Z,84.7524
2018-06-03T02:49:00.534Z,85.0034
2018-06-03T02:50:05.417Z,84.5014
2018-06-03T02:51:10.283Z,84.5014
2018-06-03T02:52:15.838Z,84.2504
2018-06-03T02:53:21.003Z,82.8235
2018-06-03T02:54:41.351Z,85.2571
2018-06-03T02:55:46.785Z,85.0034
2018-06-03T02:56:51.962Z,85.5081
2018-06-03T02:57:57.840Z,84.2504
2018-06-03T02:59:03.271Z,84.2504
2018-06-03T03:00:08.702Z,85.0034
2018-06-03T03:01:14.101Z,84.2504
2018-06-03T03:02:19.562Z,84.5014
2018-06-03T03:03:25.337Z,84.2504
2018-06-03T03:04:30.559Z,84.7524
2018-06-03T03:05:35.980Z,85.2571
2018-06-03T03:06:41.760Z,84.7524
2018-06-03T03:07:46.644Z,84.2504
2018-06-03T03:08:51.804Z,84.7524
2018-06-03T03:09:57.360Z,85.0034
2018-06-03T03:11:02.245Z,84.7524
2018-06-03T03:12:07.123Z,84.5014
2018-06-03T03:13:12.225Z,83.8302
2018-06-03T03:14:17.388Z,84.2504
2018-06-03T03:15:22.838Z,85.0034
2018-06-03T03:16:28.553Z,84.7524
2018-06-03T03:17:33.428Z,84.2504
2018-06-03T03:18:39.322Z,84.5014
2018-06-03T03:19:44.487Z,83.5792
2018-06-03T03:20:48.789Z,83.8302
2018-06-03T03:21:54.194Z,84.2504
2018-06-03T03:22:59.350Z,85.0034
2018-06-03T03:24:04.221Z,84.2504
2018-06-03T03:25:09.762Z,83.8302
2018-06-03T03:26:15.192Z,83.5792
2018-06-03T03:27:20.638Z,83.0745
2018-06-03T03:28:25.473Z,84.2504
2018-06-03T03:29:30.376Z,84.5014
2018-06-03T03:30:36.358Z,84.0812
2018-06-03T03:31:41.800Z,84.7524
2018-06-03T03:32:46.959Z,83.8302
2018-06-03T03:33:52.648Z,84.2504
2018-06-03T03:34:58.096Z,84.5014
2018-06-03T03:36:03.250Z,84.7524
2018-06-03T03:37:08.930Z,84.7524
2018-06-03T03:38:14.086Z,84.7524
2018-06-03T03:39:19.520Z,84.2504
2018-06-03T03:40:25.202Z,84.5014
2018-06-03T03:41:30.062Z,84.7524
2018-06-03T03:42:35.285Z,83.5792
2018-06-03T03:43:40.725Z,84.2504
2018-06-03T03:44:46.189Z,84.7524
2018-06-03T03:45:51.305Z,84.5014
2018-06-03T03:46:55.885Z,84.0812
2018-06-03T03:48:00.783Z,83.5792
2018-06-03T03:49:06.326Z,84.0812
2018-06-03T03:50:11.201Z,84.0812
2018-06-03T03:51:16.074Z,83.0745
2018-06-03T03:52:21.754Z,84.0812
2018-06-03T03:53:26.902Z,84.0812
2018-06-03T03:54:32.760Z,84.5014
2018-06-03T03:55:37.625Z,83.8302
2018-06-03T03:56:42.773Z,83.8302
2018-06-03T03:57:48.455Z,84.0812
2018-06-03T03:58:53.643Z,84.0812
2018-06-03T03:59:58.487Z,84.0812
2018-06-03T04:01:02.891Z,84.2504
2018-06-03T04:02:07.208Z,84.0812
2018-06-03T04:03:12.646Z,84.2504
2018-06-03T04:04:17.817Z,84.7524
2018-06-03T04:05:22.970Z,84.5014
2018-06-03T04:06:28.626Z,84.0812
2018-06-03T04:07:33.952Z,83.5792
2018-06-03T04:08:39.106Z,84.0812
2018-06-03T04:09:44.955Z,84.2504
2018-06-03T04:10:50.113Z,84.0812
2018-06-03T04:11:54.424Z,84.0812
2018-06-03T04:12:59.630Z,83.8302
2018-06-03T04:14:04.785Z,84.2504
2018-06-03T04:15:10.234Z,83.8302
2018-06-03T04:16:15.738Z,84.0812
2018-06-03T04:17:20.891Z,84.5014
2018-06-03T04:18:41.094Z,83.0745
2018-06-03T04:19:46.528Z,83.0745
2018-06-03T04:20:51.983Z,83.0745
2018-06-03T04:21:57.822Z,83.5792
2018-06-03T04:23:02.703Z,82.8235
2018-06-03T04:24:07.842Z,83.5792
2018-06-03T04:25:13.013Z,83.0745
2018-06-03T04:26:18.170Z,83.0745
2018-06-03T04:27:23.342Z,82.6544
2018-06-03T04:28:28.938Z,82.8235
2018-06-03T04:29:33.519Z,83.0745
2018-06-03T04:30:39.012Z,83.8302
2018-06-03T04:31:44.157Z,83.0745
2018-06-03T04:32:49.020Z,83.0745
2018-06-03T04:33:54.157Z,83.0745
2018-06-03T04:34:59.587Z,82.8235
2018-06-03T04:36:05.021Z,83.0745
2018-06-03T04:37:10.140Z,82.6544
2018-06-03T04:38:15.306Z,83.0745
2018-06-03T04:39:20.457Z,81.9013
2018-06-03T04:40:26.167Z,82.1523
2018-06-03T04:41:31.042Z,81.2275
2018-06-03T04:42:36.696Z,82.6544
2018-06-03T04:43:41.846Z,82.6544
2018-06-03T04:44:46.706Z,83.0745
2018-06-03T04:45:51.558Z,82.6544
2018-06-03T04:46:56.743Z,82.8235
2018-06-03T04:48:01.896Z,82.4034
2018-06-03T04:49:06.905Z,82.1523
2018-06-03T04:50:12.051Z,82.4034
2018-06-03T04:51:17.501Z,82.1523
2018-06-03T04:52:22.655Z,81.6477
2018-06-03T04:53:27.531Z,81.9013
2018-06-03T04:54:33.230Z,81.9013
2018-06-03T04:55:38.663Z,82.1523
2018-06-03T04:56:43.531Z,81.6477
2018-06-03T04:57:48.650Z,81.9013
2018-06-03T04:58:53.801Z,82.1523
2018-06-03T04:59:58.968Z,82.4034
2018-06-03T05:01:04.346Z,82.6544
2018-06-03T05:02:09.502Z,83.5792
2018-06-03T05:03:14.935Z,82.6544
2018-06-03T05:04:20.091Z,82.6544
2018-06-03T05:05:25.537Z,82.1523
2018-06-03T05:06:31.237Z,82.1523
2018-06-03T05:07:36.789Z,81.6477
2018-06-03T05:08:41.097Z,81.9013
2018-06-03T05:09:46.656Z,82.4034
2018-06-03T05:10:51.820Z,81.4812
2018-06-03T05:11:57.293Z,82.4034
2018-06-03T05:13:02.133Z,81.9013
2018-06-03T05:14:07.278Z,82.4034
2018-06-03T05:15:12.441Z,81.9013
2018-06-03T05:16:18.137Z,81.6477
2018-06-03T05:17:23.570Z,81.9013
2018-06-03T05:18:28.852Z,82.4034
2018-06-03T05:19:34.301Z,81.2275
2018-06-03T05:20:39.177Z,81.6477
2018-06-03T05:21:44.570Z,82.1523
2018-06-03T05:22:49.461Z,81.6477
2018-06-03T05:23:54.604Z,82.1523
2018-06-03T05:24:59.601Z,82.4034
2018-06-03T05:26:04.460Z,81.2275
2018-06-03T05:27:09.908Z,80.9765
2018-06-03T05:28:15.506Z,81.6477
2018-06-03T05:29:20.385Z,81.6477
2018-06-03T05:30:40.862Z,80.9765
2018-06-03T05:31:46.302Z,80.7255
2018-06-03T05:32:51.755Z,81.4812
2018-06-03T05:33:56.602Z,81.4812
2018-06-03T05:35:01.466Z,81.6477
2018-06-03T05:36:06.618Z,80.2208
2018-06-03T05:37:12.012Z,81.9013
2018-06-03T05:38:17.471Z,81.9013
2018-06-03T05:39:22.919Z,81.9013
2018-06-03T05:40:28.618Z,81.4812
2018-06-03T05:41:34.052Z,81.6477
2018-06-03T05:42:39.456Z,81.9013
2018-06-03T05:43:44.079Z,81.2275
2018-06-03T05:44:48.973Z,80.9765
2018-06-03T05:45:54.375Z,80.9765
2018-06-03T05:46:59.255Z,80.7255
2018-06-03T05:48:04.122Z,80.9765
2018-06-03T05:49:09.251Z,80.9765
2018-06-03T05:50:14.406Z,80.9765
2018-06-03T05:51:19.559Z,80.4745
2018-06-03T05:52:24.969Z,79.9698
2018-06-03T05:53:30.117Z,80.2208
2018-06-03T05:54:35.523Z,80.4745
2018-06-03T05:55:40.708Z,80.7255
2018-06-03T05:56:45.863Z,79.2141
2018-06-03T05:57:51.747Z,79.9698
2018-06-03T05:58:57.211Z,79.4678
2018-06-03T06:00:02.083Z,80.4745
2018-06-03T06:01:06.928Z,79.9698
2018-06-03T06:02:12.090Z,79.4678
2018-06-03T06:03:17.539Z,79.9698
2018-06-03T06:04:23.471Z,79.7188
2018-06-03T06:05:28.937Z,79.9698
2018-06-03T06:06:34.455Z,79.7188
2018-06-03T06:07:39.050Z,79.7188
2018-06-03T06:08:43.905Z,79.9698
2018-06-03T06:09:49.097Z,80.2208
2018-06-03T06:10:53.987Z,80.4745
2018-06-03T06:11:59.148Z,80.4745
2018-06-03T06:13:04.764Z,80.7255
2018-06-03T06:14:09.915Z,80.2208
2018-06-03T06:15:14.781Z,80.9765
2018-06-03T06:16:20.198Z,80.2208
2018-06-03T06:17:24.786Z,79.4678
2018-06-03T06:18:30.573Z,80.4745
2018-06-03T06:19:36.018Z,79.2141
2018-06-03T06:20:41.185Z,79.4678
2018-06-03T06:21:46.739Z,79.2141
2018-06-03T06:22:52.218Z,79.2141
2018-06-03T06:23:57.374Z,79.4678
2018-06-03T06:25:03.171Z,79.2141
2018-06-03T06:26:08.325Z,79.0476
2018-06-03T06:27:13.201Z,79.0476
2018-06-03T06:28:18.991Z,78.5456
2018-06-03T06:29:24.258Z,79.7188
2018-06-03T06:30:29.319Z,79.0476
2018-06-03T06:31:34.755Z,78.5456
2018-06-03T06:32:39.914Z,78.7966
2018-06-03T06:33:45.315Z,78.7966
2018-06-03T06:34:50.806Z,79.0476
2018-06-03T06:35:56.075Z,78.7966
2018-06-03T06:37:01.768Z,78.5456
2018-06-03T06:38:06.928Z,78.5456
2018-06-03T06:39:12.365Z,78.2919
2018-06-03T06:40:17.671Z,77.7899
2018-06-03T06:41:23.101Z,77.7899
2018-06-03T06:42:28.422Z,78.5456
2018-06-03T06:43:33.579Z,78.2919
2018-06-03T06:44:39.012Z,77.5389
2018-06-03T06:45:44.407Z,77.5389
2018-06-03T06:46:49.568Z,78.0409
2018-06-03T06:47:54.152Z,78.2919
2018-06-03T06:48:59.850Z,77.7899
2018-06-03T06:50:04.344Z,77.7899
2018-06-03T06:51:09.579Z,77.0342
2018-06-03T06:52:15.157Z,77.5389
2018-06-03T06:53:20.592Z,77.0342
2018-06-03T06:54:25.789Z,77.5389
2018-06-03T06:55:30.997Z,77.5389
2018-06-03T06:56:36.142Z,77.0342
2018-06-03T06:57:41.248Z,77.7899
2018-06-03T06:58:46.154Z,77.7899
2018-06-03T06:59:51.590Z,77.0342
2018-06-03T07:00:56.999Z,77.2852
2018-06-03T07:02:02.162Z,77.0342
2018-06-03T07:03:06.752Z,77.2852
2018-06-03T07:04:12.071Z,76.6167
2018-06-03T07:05:16.934Z,77.2852
2018-06-03T07:06:22.091Z,77.2852
2018-06-03T07:07:28.090Z,76.7831
2018-06-03T07:08:33.258Z,76.7831
2018-06-03T07:09:38.890Z,77.2852
2018-06-03T07:10:43.479Z,76.7831
2018-06-03T07:11:48.922Z,76.363
2018-06-03T07:12:54.137Z,75.861
2018-06-03T07:13:59.307Z,77.0342
2018-06-03T07:15:04.185Z,76.7831
2018-06-03T07:16:09.314Z,76.6167
2018-06-03T07:17:14.204Z,76.7831
2018-06-03T07:18:19.380Z,76.7831
2018-06-03T07:19:24.300Z,76.6167
2018-06-03T07:20:29.807Z,77.0342
2018-06-03T07:21:35.495Z,76.6167
2018-06-03T07:22:40.648Z,76.363
2018-06-03T07:23:44.949Z,77.5389
2018-06-03T07:24:50.361Z,77.2852
2018-06-03T07:25:55.501Z,75.861
2018-06-03T07:27:00.686Z,77.0342
2018-06-03T07:28:06.225Z,76.363
2018-06-03T07:29:11.385Z,76.363
2018-06-03T07:30:16.821Z,76.112
2018-06-03T07:31:22.507Z,77.0342
2018-06-03T07:32:27.943Z,76.112
2018-06-03T07:33:32.777Z,77.0342
2018-06-03T07:34:38.207Z,76.363
2018-06-03T07:35:43.370Z,76.5321
2018-06-03T07:36:49.154Z,76.363
2018-06-03T07:37:53.755Z,76.7831
2018-06-03T07:38:58.899Z,76.112
2018-06-03T07:40:04.853Z,76.7831
2018-06-03T07:41:10.019Z,76.112
2018-06-03T07:42:15.173Z,75.861
2018-06-03T07:43:20.727Z,75.861
2018-06-03T07:44:25.880Z,77.0342
2018-06-03T07:45:30.925Z,76.112
2018-06-03T07:46:36.368Z,77.2852
2018-06-03T07:47:41.814Z,76.7831
2018-06-03T07:48:47.370Z,76.112
2018-06-03T07:49:52.819Z,76.363
2018-06-03T07:50:57.968Z,77.2852
2018-06-03T07:52:03.104Z,76.5321
2018-06-03T07:53:07.973Z,76.112
2018-06-03T07:54:13.404Z,76.5321
2018-06-03T07:55:19.099Z,76.112
2018-06-03T07:56:24.250Z,76.5321
2018-06-03T07:57:30.080Z,76.112
2018-06-03T07:58:35.237Z,76.5321
2018-06-03T07:59:39.837Z,76.112
2018-06-03T08:00:44.923Z,76.7831
2018-06-03T08:01:49.532Z,76.2811
2018-06-03T08:02:54.135Z,76.7831
2018-06-03T08:03:59.539Z,75.861
2018-06-03T08:05:04.127Z,76.5321
2018-06-03T08:06:09.294Z,76.5321
2018-06-03T08:07:14.705Z,77.0342
2018-06-03T08:08:20.163Z,77.2852
2018-06-03T08:09:40.038Z,76.7831
2018-06-03T08:10:45.184Z,76.7831
2018-06-03T08:11:50.365Z,76.5321
2018-06-03T08:12:56.054Z,77.2852
2018-06-03T08:14:00.652Z,78.0409
2018-06-03T08:15:05.527Z,76.2811
2018-06-03T08:16:10.931Z,76.7831
2018-06-03T08:17:16.360Z,77.0342
2018-06-03T08:18:21.232Z,77.5389
2018-06-03T08:19:26.642Z,77.5389
2018-06-03T08:20:32.090Z,77.0342
2018-06-03T08:21:37.603Z,78.0409
2018-06-03T08:22:42.521Z,77.5389
2018-06-03T08:23:47.419Z,77.2852
2018-06-03T08:24:52.738Z,77.0342
2018-06-03T08:25:57.629Z,77.7899
2018-06-03T08:27:02.788Z,78.5456
2018-06-03T08:28:08.145Z,77.2852
2018-06-03T08:29:13.021Z,77.2852
2018-06-03T08:30:18.458Z,77.7899
2018-06-03T08:31:23.866Z,77.7899
2018-06-03T08:32:28.183Z,77.5389
2018-06-03T08:33:33.980Z,77.7899
2018-06-03T08:34:39.122Z,76.7831
2018-06-03T08:35:44.287Z,76.5321
2018-06-03T08:36:49.689Z,76.5321
2018-06-03T08:37:54.851Z,77.0342
2018-06-03T08:39:00.023Z,76.7831
2018-06-03T08:40:05.210Z,77.2852
2018-06-03T08:41:10.404Z,76.7831
2018-06-03T08:42:15.286Z,76.7831
2018-06-03T08:43:20.504Z,76.7831
2018-06-03T08:44:25.944Z,76.7831
2018-06-03T08:45:31.538Z,78.0409
2018-06-03T08:46:36.715Z,77.0342
2018-06-03T08:47:42.070Z,77.0342
2018-06-03T08:48:47.643Z,76.5321
2018-06-03T08:49:52.789Z,76.5321
2018-06-03T08:50:57.664Z,77.5389
2018-06-03T08:52:03.201Z,76.7831
2018-06-03T08:53:08.083Z,77.5389
2018-06-03T08:54:13.521Z,77.2852
2018-06-03T08:55:18.648Z,77.7899
2018-06-03T08:56:24.077Z,77.2852
2018-06-03T08:57:30.111Z,77.7899
2018-06-03T08:58:35.268Z,77.2852
2018-06-03T08:59:40.426Z,77.5389
2018-06-03T09:00:46.207Z,77.2852
2018-06-03T09:01:51.075Z,77.7899
2018-06-03T09:02:56.232Z,77.5389
2018-06-03T09:04:01.758Z,77.0342
2018-06-03T09:05:06.641Z,76.7831
2018-06-03T09:06:12.071Z,77.2852
2018-06-03T09:07:17.868Z,77.2852
2018-06-03T09:08:23.025Z,77.7899
2018-06-03T09:09:28.069Z,77.2852
2018-06-03T09:10:33.222Z,77.5389
2018-06-03T09:11:38.674Z,77.0342
2018-06-03T09:12:44.505Z,76.7831
2018-06-03T09:13:49.665Z,77.2852
2018-06-03T09:14:55.110Z,77.7899
2018-06-03T09:16:00.335Z,77.5389
2018-06-03T09:17:05.478Z,77.5389
2018-06-03T09:18:10.355Z,77.2852
2018-06-03T09:19:15.764Z,76.7831
2018-06-03T09:20:21.212Z,76.5321
2018-06-03T09:21:41.039Z,77.7899
2018-06-03T09:22:46.187Z,77.5389
2018-06-03T09:23:51.351Z,77.2852
2018-06-03T09:24:57.182Z,77.2852
2018-06-03T09:26:02.845Z,78.2919
2018-06-03T09:27:07.146Z,78.2919
2018-06-03T09:28:12.834Z,78.2919
2018-06-03T09:29:18.270Z,77.0342
2018-06-03T09:30:23.714Z,78.712
2018-06-03T09:31:29.261Z,78.2919
2018-06-03T09:32:34.738Z,78.461
2018-06-03T09:33:40.425Z,78.461
2018-06-03T09:34:45.408Z,78.712
2018-06-03T09:35:50.275Z,78.461
2018-06-03T09:36:55.824Z,78.0409
2018-06-03T09:38:00.709Z,78.461
2018-06-03T09:39:05.580Z,78.461
2018-06-03T09:40:11.286Z,78.2919
2018-06-03T09:41:16.427Z,78.2919
2018-06-03T09:42:21.008Z,78.461
2018-06-03T09:43:25.841Z,78.9631
2018-06-03T09:44:31.082Z,78.2919
2018-06-03T09:45:36.760Z,78.9631
2018-06-03T09:46:41.637Z,78.712
2018-06-03T09:47:47.065Z,79.2141
2018-06-03T09:48:52.470Z,78.461
2018-06-03T09:49:57.624Z,78.461
2018-06-03T09:51:01.938Z,78.461
2018-06-03T09:52:07.349Z,78.9631
2018-06-03T09:53:12.550Z,79.4678
2018-06-03T09:54:18.256Z,78.461
2018-06-03T09:55:23.107Z,79.4678
2018-06-03T09:56:28.297Z,79.4678
2018-06-03T09:57:34.132Z,79.7188
2018-06-03T09:58:39.565Z,79.7188
2018-06-03T09:59:44.753Z,79.2141
2018-06-03T10:00:50.551Z,79.4678
2018-06-03T10:01:55.425Z,78.712
2018-06-03T10:03:00.856Z,78.21
2018-06-03T10:04:05.790Z,78.9631
2018-06-03T10:05:10.371Z,78.712
2018-06-03T10:06:15.807Z,78.9631
2018-06-03T10:07:21.591Z,79.7188
2018-06-03T10:08:26.763Z,79.7188
2018-06-03T10:09:32.547Z,78.9631
2018-06-03T10:10:37.702Z,79.2141
2018-06-03T10:11:42.846Z,80.3899
2018-06-03T10:12:48.629Z,80.1389
2018-06-03T10:13:53.781Z,80.6409
2018-06-03T10:14:59.221Z,80.3899
2018-06-03T10:16:04.356Z,79.9698
2018-06-03T10:17:09.550Z,80.1389
2018-06-03T10:18:14.429Z,79.9698
2018-06-03T10:19:19.824Z,80.8946
2018-06-03T10:20:25.260Z,80.6409
2018-06-03T10:21:31.387Z,80.1389
2018-06-03T10:22:36.690Z,80.1389
2018-06-03T10:23:41.904Z,79.8879
2018-06-03T10:24:47.706Z,79.7188
2018-06-03T10:25:52.874Z,79.7188
2018-06-03T10:26:58.120Z,80.1389
2018-06-03T10:28:04.121Z,80.3899
2018-06-03T10:29:08.723Z,79.4678
2018-06-03T10:30:14.168Z,80.6409
2018-06-03T10:31:19.855Z,80.8946
2018-06-03T10:32:25.010Z,80.8946
2018-06-03T10:33:30.588Z,80.3899
2018-06-03T10:34:36.044Z,80.1389
2018-06-03T10:35:41.189Z,80.1389
2018-06-03T10:36:46.753Z,79.7188
2018-06-03T10:37:52.216Z,80.1389
2018-06-03T10:38:57.354Z,79.8879
2018-06-03T10:40:02.206Z,80.3899
2018-06-03T10:41:06.197Z,79.4678
2018-06-03T10:42:11.362Z,79.8879
2018-06-03T10:43:16.289Z,79.7188
2018-06-03T10:44:21.434Z,79.7188
2018-06-03T10:45:27.742Z,80.1389
2018-06-03T10:46:33.192Z,78.9631
2018-06-03T10:47:38.342Z,79.4678
2018-06-03T10:48:43.908Z,79.2141
2018-06-03T10:49:48.704Z,79.4678
2018-06-03T10:50:53.579Z,79.4678
2018-06-03T10:51:58.415Z,79.2141
2018-06-03T10:53:03.510Z,79.7188
2018-06-03T10:54:08.396Z,79.7188
2018-06-03T10:55:13.806Z,79.7188
2018-06-03T10:56:18.975Z,79.8879
2018-06-03T10:57:24.145Z,79.8879
2018-06-03T10:58:43.741Z,80.1389
2018-06-03T10:59:48.743Z,79.7188
2018-06-03T11:00:54.686Z,79.8879
2018-06-03T11:02:00.123Z,80.1389
2018-06-03T11:03:05.556Z,80.1389
2018-06-03T11:04:10.829Z,80.1389
2018-06-03T11:05:15.988Z,79.6342
2018-06-03T11:06:21.155Z,80.1389
2018-06-03T11:07:26.558Z,80.3899
2018-06-03T11:08:31.696Z,80.3899
2018-06-03T11:09:37.102Z,80.3899
2018-06-03T11:10:42.258Z,80.3899
2018-06-03T11:11:47.713Z,80.3899
2018-06-03T11:12:52.583Z,80.6409
2018-06-03T11:13:58.015Z,81.1456
2018-06-03T11:15:02.334Z,80.8946
2018-06-03T11:16:08.359Z,80.1389
2018-06-03T11:17:13.518Z,80.6409
2018-06-03T11:18:18.412Z,79.8879
2018-06-03T11:19:24.101Z,81.1456
2018-06-03T11:20:29.314Z,79.8879
2018-06-03T11:21:35.212Z,80.3899
2018-06-03T11:22:40.090Z,80.3899
2018-06-03T11:23:45.517Z,80.1389
2018-06-03T11:24:51.204Z,80.6409
2018-06-03T11:25:56.639Z,80.1389
2018-06-03T11:27:01.668Z,80.6409
2018-06-03T11:28:06.525Z,80.8946
2018-06-03T11:29:11.691Z,80.1389
2018-06-03T11:30:16.872Z,79.6342
2018-06-03T11:31:22.608Z,80.8946
2018-06-03T11:32:28.045Z,80.3899
2018-06-03T11:33:33.042Z,79.8879
2018-06-03T11:34:38.475Z,80.8946
2018-06-03T11:35:43.626Z,80.8946
2018-06-03T11:36:48.784Z,79.8879
2018-06-03T11:37:53.052Z,80.3899
2018-06-03T11:38:58.208Z,80.3899
2018-06-03T11:40:03.200Z,80.3899
2018-06-03T11:41:08.630Z,80.6409
2018-06-03T11:42:14.063Z,80.8946
2018-06-03T11:43:19.843Z,80.6409
2018-06-03T11:44:24.992Z,80.3899
2018-06-03T11:45:30.955Z,80.6409
2018-06-03T11:46:36.411Z,80.8946
2018-06-03T11:47:41.852Z,80.1389
2018-06-03T11:48:47.413Z,80.8946
2018-06-03T11:49:52.596Z,80.1389
2018-06-03T11:50:57.478Z,80.1389
2018-06-03T11:52:02.618Z,79.6342
2018-06-03T11:53:07.518Z,80.6409
2018-06-03T11:54:12.139Z,80.3899
2018-06-03T11:55:17.633Z,80.8946
2018-06-03T11:56:22.515Z,81.3966
2018-06-03T11:57:27.402Z,80.3899
2018-06-03T11:58:32.555Z,81.1456
2018-06-03T11:59:37.725Z,80.8946
2018-06-03T12:00:42.748Z,80.3899
2018-06-03T12:01:48.007Z,80.3899
2018-06-03T12:02:53.613Z,80.6409
2018-06-03T12:03:59.164Z,80.6409
2018-06-03T12:05:04.037Z,80.3899
2018-06-03T12:06:09.199Z,80.6409
2018-06-03T12:07:14.354Z,81.6477
2018-06-03T12:08:19.939Z,80.8946
2018-06-03T12:09:25.105Z,80.8946
2018-06-03T12:10:30.288Z,81.1456
2018-06-03T12:11:35.720Z,81.1456
2018-06-03T12:12:41.218Z,80.1389
2018-06-03T12:13:46.362Z,81.3966
2018-06-03T12:14:51.227Z,80.8946
2018-06-03T12:15:56.787Z,81.1456
2018-06-03T12:17:01.654Z,81.1456
2018-06-03T12:18:06.808Z,81.1456
2018-06-03T12:19:12.501Z,81.3966
2018-06-03T12:20:17.120Z,81.3966
2018-06-03T12:21:22.279Z,82.0678
2018-06-03T12:22:28.173Z,82.0678
2018-06-03T12:23:33.054Z,81.3966
2018-06-03T12:24:38.608Z,81.6477
2018-06-03T12:25:43.766Z,81.6477
2018-06-03T12:26:48.918Z,81.6477
2018-06-03T12:27:54.607Z,82.0678
2018-06-03T12:28:59.953Z,82.5698
2018-06-03T12:30:05.112Z,82.3188
2018-06-03T12:31:10.797Z,82.7389
2018-06-03T12:32:15.678Z,82.0678
2018-06-03T12:33:20.856Z,83.4946
2018-06-03T12:34:26.072Z,81.8168
2018-06-03T12:35:31.224Z,82.5698
2018-06-03T12:36:36.608Z,82.0678
2018-06-03T12:37:41.481Z,82.7389
2018-06-03T12:38:46.629Z,82.5698
2018-06-03T12:39:52.130Z,82.0678
2018-06-03T12:40:57.555Z,82.7389
2018-06-03T12:42:02.439Z,83.4946
2018-06-03T12:43:08.340Z,82.99
2018-06-03T12:44:13.477Z,82.7389
2018-06-03T12:45:18.636Z,82.3188
2018-06-03T12:46:23.749Z,83.4946
2018-06-03T12:47:28.608Z,83.7457
2018-06-03T12:48:34.537Z,82.7389
2018-06-03T12:49:39.968Z,82.99
2018-06-03T12:50:45.408Z,83.7457
2018-06-03T12:51:50.527Z,83.9967
2018-06-03T12:52:55.697Z,83.9967
2018-06-03T12:54:01.127Z,84.2504
2018-06-03T12:55:05.972Z,84.6678
2018-06-03T12:56:10.847Z,84.4168
2018-06-03T12:57:16.010Z,84.4168
2018-06-03T12:58:21.409Z,84.6678
2018-06-03T12:59:26.024Z,84.6678
2018-06-03T13:00:31.867Z,84.9215
2018-06-03T13:01:37.352Z,85.6772
2018-06-03T13:02:42.471Z,85.6772
2018-06-03T13:03:48.154Z,86.1792
2018-06-03T13:04:52.729Z,85.6772
2018-06-03T13:05:57.879Z,86.4303
2018-06-03T13:07:03.561Z,85.9282
2018-06-03T13:08:08.416Z,86.1792
2018-06-03T13:09:13.856Z,85.9282
2018-06-03T13:10:19.545Z,85.6772
2018-06-03T13:11:24.410Z,85.9282
2018-06-03T13:12:30.300Z,86.4303